createdAt,value
2022-07-25T00:01:25.893Z,20.60
2022-07-25T00:03:58.382Z,20.70
2022-07-25T00:06:26.317Z,20.60
2022-07-25T00:08:54.162Z,20.40
2022-07-25T00:11:22.119Z,20.40
2022-07-25T00:13:51.336Z,20.30
2022-07-25T00:16:19.726Z,20.30
2022-07-25T00:18:47.986Z,20.10
2022-07-25T00:21:16.011Z,20.10
2022-07-25T00:23:44.014Z,20.10
2022-07-25T00:26:12.047Z,20.00
2022-07-25T00:28:40.270Z,20.00
2022-07-25T00:31:24.921Z,20.20
2022-07-25T00:33:53.107Z,20.20
2022-07-25T00:36:21.435Z,20.10
2022-07-25T00:39:07.782Z,20.10
2022-07-25T00:41:52.194Z,20.00
2022-07-25T00:44:24.533Z,20.10
2022-07-25T00:46:54.241Z,20.00
2022-07-25T00:49:22.223Z,20.00
2022-07-25T00:51:50.965Z,20.00
2022-07-25T00:54:18.847Z,20.00
2022-07-25T00:56:47.099Z,20.30
2022-07-25T00:59:14.971Z,20.00
2022-07-25T01:01:42.996Z,19.90
2022-07-25T01:04:12.311Z,19.80
2022-07-25T01:06:40.357Z,19.70
2022-07-25T01:09:08.298Z,20.00
2022-07-25T01:11:36.230Z,20.00
2022-07-25T01:14:04.513Z,19.80
2022-07-25T01:16:32.790Z,19.80
2022-07-25T01:19:00.702Z,19.80
2022-07-25T01:21:29.945Z,19.80
2022-07-25T01:23:58.117Z,19.70
2022-07-25T01:26:26.189Z,19.70
2022-07-25T01:28:54.977Z,19.60
2022-07-25T01:31:23.227Z,19.60
2022-07-25T01:33:51.179Z,19.50
2022-07-25T01:36:21.951Z,19.40
2022-07-25T01:38:51.134Z,19.70
2022-07-25T01:41:22.643Z,19.60
2022-07-25T01:43:50.729Z,19.60
2022-07-25T01:46:19.008Z,19.60
2022-07-25T01:48:46.911Z,19.60
2022-07-25T01:51:15.018Z,19.70
2022-07-25T01:53:48.464Z,19.80
2022-07-25T01:56:17.986Z,19.60
2022-07-25T01:58:49.715Z,19.50
2022-07-25T02:01:17.738Z,19.40
2022-07-25T02:03:49.474Z,19.40
2022-07-25T02:06:18.887Z,19.30
2022-07-25T02:08:46.784Z,19.30
2022-07-25T02:11:14.669Z,19.20
2022-07-25T02:13:44.629Z,19.10
2022-07-25T02:16:12.732Z,19.00
2022-07-25T02:18:40.642Z,19.00
2022-07-25T02:21:14.291Z,19.00
2022-07-25T02:23:42.770Z,19.10
2022-07-25T02:26:10.688Z,19.10
2022-07-25T02:28:38.507Z,19.10
2022-07-25T02:31:08.082Z,19.10
2022-07-25T02:33:36.199Z,19.20
2022-07-25T02:36:04.140Z,19.20
2022-07-25T02:38:31.996Z,19.10
2022-07-25T02:40:59.833Z,19.10
2022-07-25T02:43:27.695Z,19.20
2022-07-25T02:45:55.600Z,19.20
2022-07-25T02:48:24.929Z,19.20
2022-07-25T02:50:52.773Z,19.20
2022-07-25T02:53:34.236Z,19.30
2022-07-25T02:56:09.058Z,19.20
2022-07-25T02:58:36.928Z,19.00
2022-07-25T03:01:07.388Z,18.90
2022-07-25T03:03:36.712Z,18.90
2022-07-25T03:06:04.672Z,18.80
2022-07-25T03:08:32.569Z,18.90
2022-07-25T03:11:00.409Z,18.80
2022-07-25T03:13:28.273Z,18.90
2022-07-25T03:15:57.088Z,19.10
2022-07-25T03:18:24.994Z,19.00
2022-07-25T03:20:54.281Z,18.90
2022-07-25T03:23:22.192Z,18.60
2022-07-25T03:25:50.194Z,18.50
2022-07-25T03:28:18.318Z,18.50
2022-07-25T03:30:46.169Z,18.70
2022-07-25T03:33:14.043Z,18.60
2022-07-25T03:35:41.887Z,18.70
2022-07-25T03:38:11.259Z,18.60
2022-07-25T03:40:39.593Z,18.60
2022-07-25T03:43:07.915Z,18.50
2022-07-25T03:45:35.863Z,18.60
2022-07-25T03:48:03.821Z,18.60
2022-07-25T03:50:31.674Z,18.70
2022-07-25T03:52:59.552Z,18.70
2022-07-25T03:55:29.000Z,18.80
2022-07-25T03:57:56.863Z,18.80
2022-07-25T04:00:24.759Z,18.70
2022-07-25T04:02:53.036Z,18.20
2022-07-25T04:05:21.347Z,18.20
2022-07-25T04:07:49.194Z,18.40
2022-07-25T04:10:17.514Z,18.80
2022-07-25T04:12:46.734Z,19.00
2022-07-25T04:15:14.626Z,18.80
2022-07-25T04:17:44.208Z,18.60
2022-07-25T04:20:13.829Z,18.70
2022-07-25T04:22:44.875Z,18.50
2022-07-25T04:25:14.722Z,18.60
2022-07-25T04:27:42.589Z,18.60
2022-07-25T04:30:13.333Z,18.70
2022-07-25T04:32:52.072Z,18.50
2022-07-25T04:35:19.936Z,18.30
2022-07-25T04:37:47.805Z,18.40
2022-07-25T04:40:15.831Z,18.40
2022-07-25T04:42:43.661Z,18.40
2022-07-25T04:45:13.111Z,18.40
2022-07-25T04:47:41.079Z,18.50
2022-07-25T04:50:09.946Z,18.60
2022-07-25T04:52:37.868Z,18.60
2022-07-25T04:55:06.495Z,18.60
2022-07-25T04:57:34.364Z,18.70
2022-07-25T05:00:02.225Z,18.70
2022-07-25T05:02:31.516Z,18.70
2022-07-25T05:04:59.492Z,18.70
2022-07-25T05:07:30.948Z,18.80
2022-07-25T05:09:58.808Z,18.80
2022-07-25T05:12:26.641Z,18.90
2022-07-25T05:14:55.146Z,19.00
2022-07-25T05:17:23.104Z,19.00
2022-07-25T05:19:52.345Z,19.00
2022-07-25T05:22:20.960Z,19.20
2022-07-25T05:24:50.874Z,19.20
2022-07-25T05:27:18.681Z,19.20
2022-07-25T05:29:46.600Z,19.30
2022-07-25T05:32:14.438Z,19.50
2022-07-25T05:34:42.319Z,19.50
2022-07-25T05:37:11.525Z,19.60
2022-07-25T05:39:40.378Z,19.70
2022-07-25T05:42:08.332Z,19.70
2022-07-25T05:44:36.165Z,19.80
2022-07-25T05:47:04.036Z,19.90
2022-07-25T05:49:31.946Z,19.90
2022-07-25T05:51:59.782Z,20.00
2022-07-25T05:54:29.126Z,20.00
2022-07-25T05:56:56.952Z,20.10
2022-07-25T05:59:24.803Z,20.10
2022-07-25T06:01:52.778Z,20.20
2022-07-25T06:04:25.401Z,20.40
2022-07-25T06:06:54.963Z,20.40
2022-07-25T06:09:23.145Z,20.50
2022-07-25T06:12:00.378Z,20.50
2022-07-25T06:14:29.862Z,20.50
2022-07-25T06:16:57.766Z,20.60
2022-07-25T06:19:25.615Z,20.80
2022-07-25T06:21:53.458Z,20.80
2022-07-25T06:24:21.359Z,21.00
2022-07-25T06:26:49.249Z,21.00
2022-07-25T06:29:18.515Z,21.10
2022-07-25T06:31:47.427Z,21.20
2022-07-25T06:34:15.429Z,21.30
2022-07-25T06:36:43.298Z,21.40
2022-07-25T06:39:11.316Z,21.50
2022-07-25T06:41:39.169Z,21.60
2022-07-25T06:44:07.514Z,21.60
2022-07-25T06:46:37.221Z,21.80
2022-07-25T06:49:05.182Z,21.80
2022-07-25T06:51:33.089Z,21.90
2022-07-25T06:54:01.243Z,22.00
2022-07-25T06:56:31.527Z,22.10
2022-07-25T06:58:59.454Z,22.20
2022-07-25T07:01:27.496Z,22.30
2022-07-25T07:03:56.838Z,22.40
2022-07-25T07:06:24.726Z,22.50
2022-07-25T07:08:53.030Z,22.60
2022-07-25T07:11:21.040Z,22.70
2022-07-25T07:13:48.877Z,22.80
2022-07-25T07:16:16.773Z,23.00
2022-07-25T07:18:48.840Z,23.00
2022-07-25T07:21:21.470Z,23.10
2022-07-25T07:23:49.652Z,23.30
2022-07-25T07:26:21.753Z,23.40
2022-07-25T07:28:49.604Z,23.50
2022-07-25T07:31:18.296Z,23.50
2022-07-25T07:33:46.671Z,23.70
2022-07-25T07:36:14.757Z,23.80
2022-07-25T07:38:44.549Z,24.10
2022-07-25T07:41:12.983Z,24.20
2022-07-25T07:43:40.916Z,24.40
2022-07-25T07:46:08.915Z,24.60
2022-07-25T07:48:36.874Z,25.00
2022-07-25T07:51:05.129Z,25.30
2022-07-25T07:53:50.500Z,25.90
2022-07-25T07:56:20.056Z,26.00
2022-07-25T07:58:48.023Z,26.60
2022-07-25T08:01:16.134Z,27.10
2022-07-25T08:03:44.094Z,27.60
2022-07-25T08:06:11.972Z,27.70
2022-07-25T08:08:39.813Z,27.80
2022-07-25T08:11:07.762Z,27.80
2022-07-25T08:13:38.136Z,28.30
2022-07-25T08:16:07.016Z,28.70
2022-07-25T08:18:35.124Z,29.00
2022-07-25T08:21:06.018Z,28.90
2022-07-25T08:23:35.371Z,29.00
2022-07-25T08:26:04.086Z,29.00
2022-07-25T08:28:32.011Z,29.40
2022-07-25T08:31:01.335Z,29.80
2022-07-25T08:33:29.844Z,29.90
2022-07-25T08:35:58.831Z,30.10
2022-07-25T08:38:27.632Z,30.20
2022-07-25T08:40:55.797Z,30.00
2022-07-25T08:43:24.140Z,30.00
2022-07-25T08:45:53.353Z,30.10
2022-07-25T08:48:24.098Z,30.30
2022-07-25T08:50:52.403Z,30.70
2022-07-25T08:53:36.387Z,30.70
2022-07-25T08:56:10.662Z,30.60
2022-07-25T08:58:41.395Z,31.00
2022-07-25T09:01:09.619Z,31.30
2022-07-25T09:03:38.916Z,31.20
2022-07-25T09:06:16.089Z,31.60
2022-07-25T09:08:52.610Z,31.60
2022-07-25T09:11:28.175Z,32.00
2022-07-25T09:14:00.507Z,32.20
2022-07-25T09:16:32.506Z,32.00
2022-07-25T09:19:12.647Z,32.10
2022-07-25T09:21:40.929Z,32.20
2022-07-25T09:24:10.565Z,32.30
2022-07-25T09:26:49.162Z,32.00
2022-07-25T09:29:21.620Z,32.50
2022-07-25T09:31:49.532Z,32.80
2022-07-25T09:34:35.892Z,33.10
2022-07-25T09:37:04.368Z,33.40
2022-07-25T09:39:38.752Z,32.70
2022-07-25T09:42:17.470Z,32.40
2022-07-25T09:44:45.453Z,33.00
2022-07-25T09:47:13.635Z,32.90
2022-07-25T09:49:47.639Z,33.20
2022-07-25T09:52:17.269Z,33.30
2022-07-25T09:54:45.175Z,33.50
2022-07-25T09:57:13.221Z,33.60
2022-07-25T09:59:41.153Z,33.80
2022-07-25T10:02:10.786Z,34.00
2022-07-25T10:04:46.686Z,33.90
2022-07-25T10:07:15.767Z,33.50
2022-07-25T10:09:45.313Z,33.80
2022-07-25T10:12:14.210Z,33.50
2022-07-25T10:14:42.102Z,33.20
2022-07-25T10:17:10.107Z,33.40
2022-07-25T10:19:47.410Z,33.30
2022-07-25T10:22:34.352Z,33.60
2022-07-25T10:25:13.273Z,34.00
2022-07-25T10:27:45.027Z,34.30
2022-07-25T10:30:21.092Z,34.40
2022-07-25T10:32:52.500Z,33.80
2022-07-25T10:35:20.577Z,34.00
2022-07-25T10:37:51.613Z,33.90
2022-07-25T10:40:29.843Z,34.00
2022-07-25T10:43:01.785Z,34.20
2022-07-25T10:45:38.564Z,33.90
2022-07-25T10:48:10.960Z,34.00
2022-07-25T10:50:56.861Z,34.10
2022-07-25T10:53:39.849Z,34.40
2022-07-25T10:56:09.188Z,34.40
2022-07-25T10:58:50.992Z,34.70
2022-07-25T11:01:23.259Z,34.70
2022-07-25T11:03:51.372Z,34.70
2022-07-25T11:06:30.810Z,34.90
2022-07-25T11:09:01.194Z,35.00
2022-07-25T11:11:39.730Z,34.90
2022-07-25T11:14:15.630Z,34.80
2022-07-25T11:16:44.395Z,35.00
2022-07-25T11:19:22.323Z,34.60
2022-07-25T11:21:51.631Z,34.50
2022-07-25T11:24:20.916Z,34.90
2022-07-25T11:26:49.521Z,35.10
2022-07-25T11:29:25.130Z,34.80
2022-07-25T11:31:54.527Z,35.00
2022-07-25T11:34:24.462Z,35.00
2022-07-25T11:36:55.225Z,34.80
2022-07-25T11:39:26.059Z,34.80
2022-07-25T11:42:02.597Z,34.70
2022-07-25T11:44:37.161Z,34.80
2022-07-25T11:47:05.692Z,35.10
2022-07-25T11:49:33.941Z,35.20
2022-07-25T11:52:01.819Z,35.20
2022-07-25T11:54:31.107Z,35.30
2022-07-25T11:56:58.977Z,34.80
2022-07-25T11:59:27.160Z,34.90
2022-07-25T12:01:55.257Z,35.10
2022-07-25T12:04:23.281Z,35.20
2022-07-25T12:06:51.188Z,35.20
2022-07-25T12:09:19.956Z,35.00
2022-07-25T12:11:49.703Z,35.00
2022-07-25T12:14:17.573Z,34.90
2022-07-25T12:16:45.637Z,34.90
2022-07-25T12:19:19.920Z,35.00
2022-07-25T12:21:47.838Z,35.30
2022-07-25T12:24:15.772Z,35.40
2022-07-25T12:26:43.625Z,35.40
2022-07-25T12:29:12.836Z,35.50
2022-07-25T12:31:40.664Z,35.50
2022-07-25T12:34:08.511Z,35.40
2022-07-25T12:36:41.150Z,35.30
2022-07-25T12:39:09.429Z,35.20
2022-07-25T12:41:37.593Z,35.30
2022-07-25T12:44:05.701Z,35.50
2022-07-25T12:46:36.022Z,35.60
2022-07-25T12:49:04.248Z,35.80
2022-07-25T12:51:32.413Z,35.90
2022-07-25T12:54:00.347Z,35.70
2022-07-25T12:56:28.219Z,35.70
2022-07-25T12:58:56.094Z,35.50
2022-07-25T13:01:24.006Z,35.20
2022-07-25T13:03:53.229Z,35.30
2022-07-25T13:06:21.139Z,35.40
2022-07-25T13:08:49.084Z,35.30
2022-07-25T13:11:16.953Z,35.20
2022-07-25T13:13:44.867Z,35.10
2022-07-25T13:16:12.771Z,35.30
2022-07-25T13:18:40.627Z,35.30
2022-07-25T13:21:09.824Z,35.50
2022-07-25T13:23:37.725Z,35.60
2022-07-25T13:26:05.586Z,35.50
2022-07-25T13:28:33.541Z,35.30
2022-07-25T13:31:01.778Z,35.10
2022-07-25T13:33:29.642Z,35.40
2022-07-25T13:35:57.477Z,35.10
2022-07-25T13:38:26.686Z,35.10
2022-07-25T13:40:58.808Z,35.20
2022-07-25T13:43:27.013Z,35.10
2022-07-25T13:45:54.960Z,35.00
2022-07-25T13:48:30.850Z,35.10
2022-07-25T13:50:59.785Z,35.00
2022-07-25T13:53:30.559Z,35.10
2022-07-25T13:56:00.391Z,35.20
2022-07-25T13:58:28.344Z,35.20
2022-07-25T14:00:56.315Z,34.90
2022-07-25T14:03:24.211Z,35.10
2022-07-25T14:05:52.058Z,35.00
2022-07-25T14:08:20.090Z,35.20
2022-07-25T14:10:49.323Z,35.20
2022-07-25T14:13:17.154Z,35.00
2022-07-25T14:15:45.327Z,34.90
2022-07-25T14:18:13.149Z,35.00
2022-07-25T14:20:40.999Z,35.00
2022-07-25T14:23:08.830Z,34.90
2022-07-25T14:25:37.454Z,34.70
2022-07-25T14:28:06.682Z,34.90
2022-07-25T14:30:34.567Z,34.80
2022-07-25T14:33:02.825Z,34.60
2022-07-25T14:35:32.768Z,34.60
2022-07-25T14:38:00.848Z,34.50
2022-07-25T14:40:28.952Z,34.70
2022-07-25T14:42:56.782Z,34.50
2022-07-25T14:45:25.974Z,34.50
2022-07-25T14:47:53.960Z,34.40
2022-07-25T14:50:21.982Z,34.50
2022-07-25T14:52:49.821Z,34.40
2022-07-25T14:55:18.747Z,34.30
2022-07-25T14:57:46.585Z,34.40
2022-07-25T15:00:15.330Z,34.40
2022-07-25T15:02:44.645Z,34.00
2022-07-25T15:05:12.570Z,34.00
2022-07-25T15:07:40.492Z,34.10
2022-07-25T15:10:08.958Z,34.00
2022-07-25T15:12:36.786Z,34.00
2022-07-25T15:15:05.313Z,34.00
2022-07-25T15:17:33.662Z,33.90
2022-07-25T15:20:03.233Z,33.70
2022-07-25T15:22:32.355Z,33.70
2022-07-25T15:25:45.093Z,33.80
2022-07-25T15:27:48.124Z,33.70
2022-07-25T15:30:17.126Z,33.80
2022-07-25T15:32:45.765Z,33.80
2022-07-25T15:35:15.015Z,33.40
2022-07-25T15:37:42.858Z,32.90
2022-07-25T15:40:12.089Z,32.90
2022-07-25T15:42:40.008Z,33.20
2022-07-25T15:45:32.111Z,33.10
2022-07-25T15:47:57.320Z,33.20
2022-07-25T15:50:26.523Z,33.00
2022-07-25T15:52:54.405Z,33.00
2022-07-25T15:55:22.326Z,33.00
2022-07-25T15:57:50.218Z,33.00
2022-07-25T16:00:18.254Z,32.90
2022-07-25T16:02:46.561Z,32.70
2022-07-25T16:05:14.435Z,32.60
2022-07-25T16:07:43.719Z,32.70
2022-07-25T16:10:11.731Z,32.60
2022-07-25T16:12:39.705Z,32.60
2022-07-25T16:15:08.705Z,32.50
2022-07-25T16:17:37.183Z,32.30
2022-07-25T16:20:06.620Z,32.30
2022-07-25T16:22:34.469Z,32.20
2022-07-25T16:25:04.148Z,32.20
2022-07-25T16:27:32.012Z,32.00
2022-07-25T16:29:59.958Z,32.00
2022-07-25T16:32:27.823Z,31.80
2022-07-25T16:34:55.658Z,31.80
2022-07-25T16:37:23.511Z,31.70
2022-07-25T16:39:51.359Z,31.70
2022-07-25T16:42:20.542Z,31.70
2022-07-25T16:44:49.335Z,31.70
2022-07-25T16:47:17.280Z,31.70
2022-07-25T16:49:45.250Z,31.60
2022-07-25T16:52:13.126Z,31.50
2022-07-25T16:54:42.252Z,31.40
2022-07-25T16:57:10.122Z,31.40
2022-07-25T16:59:39.375Z,31.40
2022-07-25T17:02:07.396Z,31.30
2022-07-25T17:04:35.776Z,31.20
2022-07-25T17:07:03.684Z,31.10
2022-07-25T17:09:32.045Z,31.00
2022-07-25T17:11:59.889Z,30.90
2022-07-25T17:14:30.163Z,30.90
2022-07-25T17:16:59.758Z,30.80
2022-07-25T17:19:27.616Z,30.80
2022-07-25T17:21:55.463Z,30.80
2022-07-25T17:24:23.285Z,30.60
2022-07-25T17:26:51.117Z,30.60
2022-07-25T17:29:18.976Z,30.60
2022-07-25T17:31:46.954Z,30.50
2022-07-25T17:34:16.205Z,30.50
2022-07-25T17:36:44.070Z,30.30
2022-07-25T17:39:11.896Z,30.30
2022-07-25T17:41:39.786Z,30.30
2022-07-25T17:44:11.767Z,30.20
2022-07-25T17:46:40.278Z,30.20
2022-07-25T17:49:08.183Z,30.10
2022-07-25T17:51:37.405Z,30.00
2022-07-25T17:54:05.885Z,30.00
2022-07-25T17:56:34.137Z,30.00
2022-07-25T17:59:02.469Z,30.00
2022-07-25T18:01:30.347Z,29.90
2022-07-25T18:03:58.312Z,29.80
2022-07-25T18:06:29.741Z,29.80
2022-07-25T18:08:59.310Z,29.70
2022-07-25T18:11:27.711Z,29.70
2022-07-25T18:13:55.579Z,29.70
2022-07-25T18:16:23.695Z,29.60
2022-07-25T18:18:51.596Z,29.60
2022-07-25T18:21:19.486Z,29.50
2022-07-25T18:23:47.393Z,29.50
2022-07-25T18:26:16.594Z,29.40
2022-07-25T18:28:44.476Z,29.40
2022-07-25T18:31:12.561Z,29.30
2022-07-25T18:33:40.483Z,29.30
2022-07-25T18:36:08.680Z,29.20
2022-07-25T18:38:36.969Z,29.20
2022-07-25T18:41:27.949Z,29.20
2022-07-25T18:43:54.406Z,29.20
2022-07-25T18:46:22.376Z,29.20
2022-07-25T18:48:51.321Z,29.10
2022-07-25T18:51:19.221Z,29.10
2022-07-25T18:53:48.604Z,29.00
2022-07-25T18:56:17.031Z,28.90
2022-07-25T18:58:44.969Z,28.80
2022-07-25T19:01:14.430Z,28.90
2022-07-25T19:03:42.344Z,28.70
2022-07-25T19:06:10.321Z,28.60
2022-07-25T19:08:38.294Z,28.70
2022-07-25T19:11:06.136Z,28.70
2022-07-25T19:13:53.376Z,28.60
2022-07-25T19:16:22.588Z,28.60
2022-07-25T19:18:51.294Z,28.60
2022-07-25T19:21:19.120Z,28.60
2022-07-25T19:23:50.949Z,28.50
2022-07-25T19:26:19.515Z,28.40
2022-07-25T19:28:47.440Z,28.30
2022-07-25T19:31:15.403Z,28.30
2022-07-25T19:33:45.884Z,28.30
2022-07-25T19:36:13.804Z,28.30
2022-07-25T19:38:41.661Z,28.30
2022-07-25T19:41:09.668Z,28.30
2022-07-25T19:43:37.532Z,28.30
2022-07-25T19:46:05.451Z,28.10
2022-07-25T19:48:33.482Z,28.00
2022-07-25T19:51:03.110Z,27.90
2022-07-25T19:53:31.662Z,28.00
2022-07-25T19:55:59.521Z,28.10
2022-07-25T19:58:27.353Z,27.80
2022-07-25T20:00:55.211Z,27.70
2022-07-25T20:03:23.760Z,27.70
2022-07-25T20:05:52.065Z,27.10
2022-07-25T20:08:21.270Z,26.40
2022-07-25T20:10:49.312Z,25.40
2022-07-25T20:13:17.176Z,24.70
2022-07-25T20:15:45.122Z,23.90
2022-07-25T20:18:17.481Z,23.40
2022-07-25T20:20:47.398Z,22.70
2022-07-25T20:23:15.276Z,22.70
2022-07-25T20:25:44.673Z,22.80
2022-07-25T20:28:12.532Z,23.00
2022-07-25T20:30:40.486Z,23.00
2022-07-25T20:33:09.514Z,22.50
2022-07-25T20:35:37.977Z,21.70
2022-07-25T20:38:09.227Z,21.50
2022-07-25T20:40:38.083Z,21.20
2022-07-25T20:43:08.895Z,21.20
2022-07-25T20:45:36.856Z,21.50
2022-07-25T20:48:04.930Z,21.60
2022-07-25T20:50:32.788Z,21.70
2022-07-25T20:53:00.800Z,21.50
2022-07-25T20:55:29.127Z,21.40
2022-07-25T20:57:56.933Z,21.50
2022-07-25T21:00:27.672Z,21.30
2022-07-25T21:02:55.653Z,21.60
2022-07-25T21:05:24.113Z,21.50
2022-07-25T21:07:51.922Z,21.60
2022-07-25T21:10:19.758Z,21.40
2022-07-25T21:12:47.612Z,20.90
2022-07-25T21:15:15.698Z,20.80
2022-07-25T21:17:45.007Z,20.90
2022-07-25T21:20:13.930Z,21.00
2022-07-25T21:22:42.030Z,21.20
2022-07-25T21:25:11.184Z,21.20
2022-07-25T21:27:39.070Z,21.10
2022-07-25T21:30:08.177Z,21.30
2022-07-25T21:32:36.002Z,21.30
2022-07-25T21:35:06.118Z,21.40
2022-07-25T21:37:33.969Z,21.20
2022-07-25T21:40:01.807Z,21.40
2022-07-25T21:42:29.643Z,21.50
2022-07-25T21:44:57.481Z,21.70
2022-07-25T21:47:25.312Z,21.60
2022-07-25T21:50:10.781Z,21.60
2022-07-25T21:52:42.418Z,21.30
2022-07-25T21:55:10.445Z,21.10
2022-07-25T21:57:38.450Z,21.10
2022-07-25T22:00:08.026Z,21.20
2022-07-25T22:02:35.892Z,21.30
2022-07-25T22:05:03.728Z,20.80
2022-07-25T22:07:31.589Z,20.50
2022-07-25T22:10:00.832Z,20.70
2022-07-25T22:12:28.695Z,20.60
2022-07-25T22:14:56.527Z,20.60
2022-07-25T22:17:24.353Z,20.70
2022-07-25T22:19:52.201Z,20.90
2022-07-25T22:22:20.037Z,20.70
2022-07-25T22:24:47.897Z,20.80
2022-07-25T22:27:17.103Z,20.80
2022-07-25T22:29:44.954Z,20.70
2022-07-25T22:32:13.421Z,20.90
2022-07-25T22:34:41.236Z,21.10
2022-07-25T22:37:09.077Z,20.90
2022-07-25T22:39:36.902Z,20.90
2022-07-25T22:42:05.129Z,21.00
2022-07-25T22:44:34.302Z,21.20
2022-07-25T22:47:02.141Z,20.80
2022-07-25T22:49:30.046Z,20.70
2022-07-25T22:51:57.899Z,20.50
2022-07-25T22:54:25.870Z,20.50
2022-07-25T22:56:53.694Z,20.60
2022-07-25T22:59:21.537Z,20.40
2022-07-25T23:01:50.698Z,20.30
2022-07-25T23:04:18.601Z,20.30
2022-07-25T23:06:46.513Z,20.30
2022-07-25T23:09:14.478Z,20.30
2022-07-25T23:11:42.354Z,20.00
2022-07-25T23:14:10.169Z,19.70
2022-07-25T23:16:38.060Z,19.70
2022-07-25T23:19:07.545Z,19.70
2022-07-25T23:21:35.657Z,19.60
2022-07-25T23:24:03.464Z,19.40
2022-07-25T23:26:31.287Z,19.60
2022-07-25T23:28:59.153Z,19.70
2022-07-25T23:31:27.213Z,19.70
2022-07-25T23:33:55.049Z,19.70
2022-07-25T23:36:24.197Z,20.10
2022-07-25T23:38:51.988Z,20.30
2022-07-25T23:41:19.811Z,20.10
2022-07-25T23:43:56.947Z,20.00
2022-07-25T23:46:29.408Z,20.00
2022-07-25T23:48:59.032Z,20.30
2022-07-25T23:51:32.208Z,20.20
2022-07-25T23:54:00.287Z,20.00
2022-07-25T23:56:28.119Z,20.00
2022-07-25T23:58:55.945Z,19.90
